Time;durP1;ratioP1;P1;durP2;ratioP2;P2;SDS_P1;SDS_P2;PMS_P1;PMS_P2;Temp;Humidity;BMP_temperature;BMP_pressure;BME280_temperature;BME280_humidity;BME280_pressure;Samples;Min_cycle;Max_cycle;Signal;HPM_P1;HPM_P2
2022/01/16 00:04:06;;;;;;;27.13;22.10;;;;;;;;;;4979650;28;20265;-73
2022/01/16 00:04:56;;;;;;;23.70;19.90;;;;;;;;;;4995617;28;20266;-73
2022/01/16 00:07:21;;;;;;;24.77;19.60;;;;;;;;;;4947286;28;20289;-73
2022/01/16 00:09:49;;;;;;;23.97;20.13;;;;;;;;;;4978539;28;20301;-71
2022/01/16 00:12:18;;;;;;;23.10;19.27;;;;;;;;;;4976792;28;20218;-73
2022/01/16 00:14:49;;;;;;;24.90;20.83;;;;;;;;;;4995803;28;20221;-73
2022/01/16 00:17:14;;;;;;;24.00;19.67;;;;;;;;;;4979528;28;20237;-75
2022/01/16 00:19:40;;;;;;;27.30;21.43;;;;;;;;;;4988084;28;20289;-74
2022/01/16 00:22:13;;;;;;;24.47;20.07;;;;;;;;;;4979665;28;20225;-73
2022/01/16 00:24:39;;;;;;;24.23;19.87;;;;;;;;;;4963861;28;20221;-74
2022/01/16 00:27:07;;;;;;;22.40;18.37;;;;;;;;;;4967228;28;20246;-73
2022/01/16 00:29:35;;;;;;;23.10;19.37;;;;;;;;;;4959416;28;20230;-75
2022/01/16 00:32:03;;;;;;;22.27;18.40;;;;;;;;;;4987962;28;20221;-75
2022/01/16 00:34:29;;;;;;;21.70;18.40;;;;;;;;;;4959897;28;20233;-78
2022/01/16 00:36:57;;;;;;;21.63;18.57;;;;;;;;;;4957436;28;20240;-74
2022/01/16 00:39:24;;;;;;;24.20;18.90;;;;;;;;;;4983374;28;20229;-74
2022/01/16 00:41:53;;;;;;;22.33;18.17;;;;;;;;;;4955317;28;20218;-73
2022/01/16 00:44:18;;;;;;;21.30;18.57;;;;;;;;;;4990370;28;20225;-73
2022/01/16 00:46:48;;;;;;;21.10;17.87;;;;;;;;;;4987601;28;20637;-72
2022/01/16 00:49:18;;;;;;;22.97;19.23;;;;;;;;;;4950088;28;20222;-74
2022/01/16 00:51:47;;;;;;;21.53;17.23;;;;;;;;;;4938172;28;20598;-74
2022/01/16 00:54:12;;;;;;;21.27;17.90;;;;;;;;;;4954325;28;20234;-74
2022/01/16 00:56:40;;;;;;;20.00;17.20;;;;;;;;;;4976630;28;20738;-74
2022/01/16 00:59:06;;;;;;;20.37;16.87;;;;;;;;;;4943123;28;20654;-73
2022/01/16 01:01:31;;;;;;;21.23;17.50;;;;;;;;;;4974900;28;20236;-74
2022/01/16 01:03:57;;;;;;;20.83;17.43;;;;;;;;;;4975170;28;20589;-73
2022/01/16 01:06:27;;;;;;;21.27;17.93;;;;;;;;;;4974602;28;20762;-73
2022/01/16 01:08:53;;;;;;;21.77;17.80;;;;;;;;;;4959399;28;20240;-74
2022/01/16 01:11:24;;;;;;;22.17;17.93;;;;;;;;;;4990691;28;20229;-73
2022/01/16 01:16:21;;;;;;;21.00;17.07;;;;;;;;;;4971233;28;20261;-73
2022/01/16 01:18:49;;;;;;;23.27;18.47;;;;;;;;;;4990260;28;20602;-74
2022/01/16 01:21:28;;;;;;;21.27;17.50;;;;;;;;;;4990907;28;20611;-74
2022/01/16 01:23:57;;;;;;;21.73;17.30;;;;;;;;;;4942870;28;20244;-74
2022/01/16 01:26:30;;;;;;;21.90;16.80;;;;;;;;;;4955705;28;20229;-74
2022/01/16 01:28:58;;;;;;;21.30;17.17;;;;;;;;;;4970838;28;20297;-73
2022/01/16 01:31:26;;;;;;;20.10;16.07;;;;;;;;;;4954916;28;20301;-74
2022/01/16 01:33:52;;;;;;;21.33;16.90;;;;;;;;;;4969223;28;20222;-73
2022/01/16 01:36:17;;;;;;;22.83;17.97;;;;;;;;;;4954723;28;20226;-73
2022/01/16 01:38:45;;;;;;;22.60;17.70;;;;;;;;;;4990539;28;20316;-74
2022/01/16 01:41:13;;;;;;;23.10;18.40;;;;;;;;;;4974437;28;20225;-74
2022/01/16 01:51:44;;;;;;;22.03;17.27;;;;;;;;;;4989801;28;20258;-73
2022/01/16 01:54:10;;;;;;;23.53;18.27;;;;;;;;;;4974373;28;20237;-73
2022/01/16 01:56:39;;;;;;;22.57;17.37;;;;;;;;;;4990086;28;20217;-74
2022/01/16 01:59:05;;;;;;;25.20;18.40;;;;;;;;;;4973735;28;20244;-74
2022/01/16 02:01:33;;;;;;;24.97;18.83;;;;;;;;;;4958041;28;20225;-73
2022/01/16 02:04:01;;;;;;;24.27;18.33;;;;;;;;;;4973920;28;20769;-74
2022/01/16 02:06:30;;;;;;;26.90;18.70;;;;;;;;;;4958071;28;20214;-73
2022/01/16 02:09:03;;;;;;;25.30;18.93;;;;;;;;;;4974288;28;20261;-73
2022/01/16 02:11:36;;;;;;;24.37;19.07;;;;;;;;;;4959645;28;20221;-74
2022/01/16 02:14:11;;;;;;;24.30;19.03;;;;;;;;;;4974741;28;20237;-74
2022/01/16 02:28:12;;;;;;;25.30;19.03;;;;;;;;;;4974740;28;20356;-74
2022/01/16 02:36:04;;;;;;;27.23;19.97;;;;;;;;;;4975751;28;20299;-73
2022/01/16 02:38:30;;;;;;;28.67;20.83;;;;;;;;;;4989622;28;20233;-74
2022/01/16 02:41:02;;;;;;;28.93;21.33;;;;;;;;;;4973032;28;20224;-74
2022/01/16 02:43:33;;;;;;;27.47;20.40;;;;;;;;;;4953786;28;20233;-72
2022/01/16 02:46:36;;;;;;;28.73;21.47;;;;;;;;;;4969939;28;20240;-72
2022/01/16 02:48:57;;;;;;;34.53;21.80;;;;;;;;;;4952944;28;20218;-72
2022/01/16 02:51:26;;;;;;;29.03;21.03;;;;;;;;;;4956642;28;20235;-73
2022/01/16 02:53:54;;;;;;;29.23;21.10;;;;;;;;;;4954665;28;20218;-74
2022/01/16 02:56:20;;;;;;;29.57;21.10;;;;;;;;;;4953461;28;20633;-74
2022/01/16 02:58:46;;;;;;;27.00;20.60;;;;;;;;;;4977124;28;20255;-73
2022/01/16 03:01:18;;;;;;;29.07;20.73;;;;;;;;;;4961137;28;20605;-73
2022/01/16 03:03:49;;;;;;;29.70;21.17;;;;;;;;;;4978323;28;20353;-73
2022/01/16 03:06:14;;;;;;;31.27;21.27;;;;;;;;;;4993353;28;20241;-74
2022/01/16 03:08:44;;;;;;;29.90;21.13;;;;;;;;;;4978137;28;20240;-73
2022/01/16 03:11:34;;;;;;;31.23;20.93;;;;;;;;;;4961904;28;20221;-73
2022/01/16 03:14:00;;;;;;;28.30;20.23;;;;;;;;;;4967389;28;20232;-73
2022/01/16 03:16:31;;;;;;;31.37;21.30;;;;;;;;;;4961630;28;20755;-73
2022/01/16 03:21:54;;;;;;;30.63;21.90;;;;;;;;;;4993980;28;20229;-74
2022/01/16 03:24:26;;;;;;;33.20;23.13;;;;;;;;;;4946874;28;20222;-74
2022/01/16 03:26:58;;;;;;;30.50;22.80;;;;;;;;;;4974217;28;20249;-73
2022/01/16 03:29:24;;;;;;;32.37;22.87;;;;;;;;;;4960181;28;20221;-73
2022/01/16 03:31:50;;;;;;;35.47;23.70;;;;;;;;;;4960536;28;20221;-74
2022/01/16 03:34:16;;;;;;;33.13;23.27;;;;;;;;;;4972780;28;20218;-74
2022/01/16 03:36:41;;;;;;;30.43;22.50;;;;;;;;;;4973968;28;20240;-73
2022/01/16 03:39:06;;;;;;;34.73;23.97;;;;;;;;;;4959373;28;20252;-73
2022/01/16 03:41:37;;;;;;;33.27;23.37;;;;;;;;;;4961047;28;20308;-74
2022/01/16 03:44:03;;;;;;;33.23;22.80;;;;;;;;;;4959974;28;20231;-73
2022/01/16 03:46:34;;;;;;;29.70;21.73;;;;;;;;;;4960457;28;20308;-73
2022/01/16 03:49:15;;;;;;;33.27;23.37;;;;;;;;;;4960736;28;20304;-72
2022/01/16 03:51:43;;;;;;;33.10;23.80;;;;;;;;;;4961563;28;20649;-75
2022/01/16 03:54:14;;;;;;;34.30;24.23;;;;;;;;;;4960409;28;20311;-74
2022/01/16 03:56:40;;;;;;;37.17;26.00;;;;;;;;;;4960466;28;20225;-73
2022/01/16 03:59:05;;;;;;;35.63;24.07;;;;;;;;;;4993438;28;20221;-72
2022/01/16 04:01:35;;;;;;;35.17;23.23;;;;;;;;;;4959695;28;20226;-74
2022/01/16 04:04:01;;;;;;;34.60;23.10;;;;;;;;;;4993520;28;20957;-73
2022/01/16 04:06:27;;;;;;;34.97;23.77;;;;;;;;;;4959751;28;20221;-73
2022/01/16 04:08:55;;;;;;;36.77;24.80;;;;;;;;;;4992107;28;20209;-74
2022/01/16 04:11:25;;;;;;;37.97;23.90;;;;;;;;;;4974825;28;20233;-73
2022/01/16 04:14:05;;;;;;;35.47;22.97;;;;;;;;;;4976878;28;20316;-73
2022/01/16 04:16:31;;;;;;;39.60;25.07;;;;;;;;;;4962855;28;20217;-73
2022/01/16 04:18:56;;;;;;;35.50;23.70;;;;;;;;;;4993986;28;20234;-73
2022/01/16 04:21:23;;;;;;;35.03;21.77;;;;;;;;;;4975877;28;20233;-73
2022/01/16 04:23:49;;;;;;;35.33;21.50;;;;;;;;;;4959443;28;20236;-74
2022/01/16 04:26:15;;;;;;;33.20;20.10;;;;;;;;;;4975302;28;20236;-74
2022/01/16 04:28:41;;;;;;;28.93;17.30;;;;;;;;;;4959662;28;20256;-74
2022/01/16 04:31:10;;;;;;;32.50;19.63;;;;;;;;;;4975253;28;20304;-74
2022/01/16 04:33:37;;;;;;;33.77;19.37;;;;;;;;;;4991632;28;20232;-73
2022/01/16 04:36:06;;;;;;;39.67;19.80;;;;;;;;;;4992592;28;20225;-73
2022/01/16 04:38:33;;;;;;;32.10;18.97;;;;;;;;;;4959659;28;20236;-73
2022/01/16 04:43:48;;;;;;;38.30;21.03;;;;;;;;;;4991592;28;20225;-74
2022/01/16 04:46:15;;;;;;;38.30;20.67;;;;;;;;;;4971522;28;20292;-73
2022/01/16 04:48:40;;;;;;;39.40;21.03;;;;;;;;;;4956382;28;20221;-74
2022/01/16 04:51:05;;;;;;;44.57;21.80;;;;;;;;;;4955602;28;20230;-74
2022/01/16 04:53:31;;;;;;;36.77;21.13;;;;;;;;;;4971746;28;20226;-74
2022/01/16 04:55:57;;;;;;;42.03;23.37;;;;;;;;;;4979213;28;20237;-73
2022/01/16 04:58:24;;;;;;;42.63;21.97;;;;;;;;;;4959406;28;20603;-74
2022/01/16 05:00:50;;;;;;;39.07;21.20;;;;;;;;;;4991452;28;20225;-73
2022/01/16 05:03:15;;;;;;;34.67;20.73;;;;;;;;;;4974040;28;20750;-73
2022/01/16 05:05:41;;;;;;;39.60;22.13;;;;;;;;;;4991450;28;20217;-73
2022/01/16 05:08:13;;;;;;;40.90;22.73;;;;;;;;;;4975027;28;20225;-74
2022/01/16 05:10:39;;;;;;;38.20;21.73;;;;;;;;;;4991623;28;20607;-73
2022/01/16 05:13:28;;;;;;;41.20;24.03;;;;;;;;;;4973668;28;20450;-74
2022/01/16 05:18:35;;;;;;;34.57;20.57;;;;;;;;;;4977523;28;20695;-74
2022/01/16 05:21:03;;;;;;;38.30;23.53;;;;;;;;;;4958495;28;20267;-74
2022/01/16 05:23:35;;;;;;;35.27;21.30;;;;;;;;;;4974243;28;20225;-74
2022/01/16 05:26:01;;;;;;;37.53;22.00;;;;;;;;;;4990761;28;20221;-74
2022/01/16 05:28:29;;;;;;;38.40;22.03;;;;;;;;;;4990291;28;20249;-73
2022/01/16 05:30:54;;;;;;;35.80;21.77;;;;;;;;;;4958887;28;20252;-74
2022/01/16 05:33:20;;;;;;;35.47;21.57;;;;;;;;;;4973602;28;20614;-73
2022/01/16 05:35:46;;;;;;;34.67;23.87;;;;;;;;;;4974599;28;20221;-73
2022/01/16 05:38:13;;;;;;;31.03;20.53;;;;;;;;;;4974764;28;20221;-73
2022/01/16 05:40:39;;;;;;;34.37;21.40;;;;;;;;;;4974446;28;20234;-74
2022/01/16 05:43:05;;;;;;;32.87;21.77;;;;;;;;;;4958440;28;20260;-73
2022/01/16 05:45:31;;;;;;;32.27;21.40;;;;;;;;;;4958715;28;20225;-73
2022/01/16 05:47:58;;;;;;;32.03;19.93;;;;;;;;;;4974972;28;20611;-73
2022/01/16 05:50:26;;;;;;;30.47;20.43;;;;;;;;;;4990520;28;20213;-73
2022/01/16 05:52:52;;;;;;;28.57;20.77;;;;;;;;;;4958294;28;20276;-73
2022/01/16 05:55:17;;;;;;;28.57;20.07;;;;;;;;;;4957873;28;20234;-74
2022/01/16 05:57:45;;;;;;;27.53;19.20;;;;;;;;;;4992008;28;20734;-73
2022/01/16 06:00:12;;;;;;;32.97;22.53;;;;;;;;;;4990910;28;20312;-73
2022/01/16 06:02:40;;;;;;;29.37;21.47;;;;;;;;;;4957943;28;20213;-73
2022/01/16 06:05:06;;;;;;;28.93;20.17;;;;;;;;;;4973890;28;20229;-74
2022/01/16 06:07:34;;;;;;;29.50;20.87;;;;;;;;;;4990251;28;20213;-73
2022/01/16 06:10:01;;;;;;;29.47;21.23;;;;;;;;;;4989939;28;20225;-73
2022/01/16 06:12:27;;;;;;;29.97;20.83;;;;;;;;;;4989742;28;20230;-73
2022/01/16 06:14:55;;;;;;;35.17;23.57;;;;;;;;;;4990076;28;20275;-74
2022/01/16 06:17:26;;;;;;;33.93;22.37;;;;;;;;;;4973606;28;20255;-73
2022/01/16 06:19:52;;;;;;;33.10;22.77;;;;;;;;;;4958538;28;20325;-74
2022/01/16 06:22:17;;;;;;;36.47;22.63;;;;;;;;;;4972974;28;20308;-74
2022/01/16 06:24:45;;;;;;;36.63;24.67;;;;;;;;;;4973585;28;20226;-74
2022/01/16 06:27:11;;;;;;;37.10;24.60;;;;;;;;;;4989092;28;20220;-73
2022/01/16 06:29:41;;;;;;;36.17;23.43;;;;;;;;;;4989770;28;20619;-74
2022/01/16 06:32:07;;;;;;;38.77;22.30;;;;;;;;;;4973026;28;20209;-73
2022/01/16 06:34:35;;;;;;;44.17;25.57;;;;;;;;;;4973387;28;20695;-74
2022/01/16 06:37:02;;;;;;;46.00;26.83;;;;;;;;;;4989292;28;20229;-73
2022/01/16 06:39:30;;;;;;;37.60;26.97;;;;;;;;;;4989687;28;20229;-72
2022/01/16 06:42:00;;;;;;;39.23;25.07;;;;;;;;;;4973579;28;20251;-72
2022/01/16 06:44:26;;;;;;;38.63;26.97;;;;;;;;;;4973123;28;20232;-73
2022/01/16 06:46:54;;;;;;;40.53;25.60;;;;;;;;;;4990790;28;20213;-73
2022/01/16 06:49:19;;;;;;;39.67;24.10;;;;;;;;;;4969652;28;20318;-72
2022/01/16 06:51:45;;;;;;;37.83;24.47;;;;;;;;;;4963534;28;20225;-75
2022/01/16 06:54:11;;;;;;;38.17;25.00;;;;;;;;;;4989096;28;20233;-72
2022/01/16 06:56:43;;;;;;;37.47;23.70;;;;;;;;;;4989629;28;20213;-72
2022/01/16 06:59:10;;;;;;;38.17;23.13;;;;;;;;;;4988751;28;20228;-72
2022/01/16 07:01:38;;;;;;;36.07;24.13;;;;;;;;;;5447845;23;20233;-73
2022/01/16 07:04:04;;;;;;;37.37;24.37;;;;;;;;;;4988908;28;20661;-74
2022/01/16 07:06:32;;;;;;;35.77;24.20;;;;;;;;;;4989617;28;20225;-74
2022/01/16 07:08:57;;;;;;;39.50;24.47;;;;;;;;;;4973326;28;20241;-74
2022/01/16 07:11:26;;;;;;;33.97;22.70;;;;;;;;;;4972925;28;20245;-74
2022/01/16 07:13:51;;;;;;;35.23;23.07;;;;;;;;;;4957633;28;20268;-73
2022/01/16 07:16:19;;;;;;;32.17;21.17;;;;;;;;;;4973160;28;20225;-73
2022/01/16 07:18:44;;;;;;;37.37;22.53;;;;;;;;;;4970223;28;20229;-73
2022/01/16 07:21:13;;;;;;;37.23;22.23;;;;;;;;;;4953621;28;20584;-72
2022/01/16 07:23:48;;;;;;;35.67;23.23;;;;;;;;;;4979399;28;20233;-73
2022/01/16 07:26:15;;;;;;;36.23;22.60;;;;;;;;;;4978778;28;20343;-73
2022/01/16 07:28:43;;;;;;;35.87;21.97;;;;;;;;;;4975036;28;20699;-73
2022/01/16 07:31:09;;;;;;;35.40;21.73;;;;;;;;;;4971425;28;20233;-73
2022/01/16 07:33:37;;;;;;;38.90;21.70;;;;;;;;;;4974472;28;20638;-73
2022/01/16 07:36:03;;;;;;;33.80;21.00;;;;;;;;;;4973151;28;20234;-73
2022/01/16 07:38:33;;;;;;;34.33;21.63;;;;;;;;;;4960668;28;20225;-72
2022/01/16 07:40:59;;;;;;;32.63;20.37;;;;;;;;;;4988781;28;20399;-72
2022/01/16 07:43:25;;;;;;;37.03;22.57;;;;;;;;;;4988742;28;20755;-72
2022/01/16 07:45:52;;;;;;;35.13;22.67;;;;;;;;;;4992759;28;20304;-72
2022/01/16 07:48:21;;;;;;;36.43;21.87;;;;;;;;;;4976786;28;20584;-72
2022/01/16 07:50:49;;;;;;;40.23;23.63;;;;;;;;;;4977733;28;20744;-72
2022/01/16 07:53:14;;;;;;;39.10;22.57;;;;;;;;;;4991843;28;20394;-72
2022/01/16 07:55:44;;;;;;;37.80;22.90;;;;;;;;;;4977216;28;20237;-73
2022/01/16 07:58:12;;;;;;;39.43;24.07;;;;;;;;;;4991887;28;20728;-73
2022/01/16 08:00:38;;;;;;;41.50;24.03;;;;;;;;;;4976924;28;20872;-73
2022/01/16 08:03:06;;;;;;;44.63;25.43;;;;;;;;;;4959213;28;20308;-74
2022/01/16 08:05:34;;;;;;;37.40;23.90;;;;;;;;;;4957344;28;20221;-73
2022/01/16 08:08:00;;;;;;;40.37;23.47;;;;;;;;;;4941915;28;20664;-73
2022/01/16 08:10:27;;;;;;;40.47;24.63;;;;;;;;;;4974251;28;20304;-73
2022/01/16 08:12:55;;;;;;;43.73;24.47;;;;;;;;;;4976611;28;20695;-73
2022/01/16 08:15:24;;;;;;;43.73;23.17;;;;;;;;;;4972218;28;20245;-72
2022/01/16 08:17:52;;;;;;;40.87;23.57;;;;;;;;;;4973132;28;20593;-73
2022/01/16 08:20:20;;;;;;;43.30;24.73;;;;;;;;;;4987898;28;20236;-73
2022/01/16 08:22:46;;;;;;;44.90;22.80;;;;;;;;;;4976313;28;20612;-73
2022/01/16 08:25:12;;;;;;;40.60;20.20;;;;;;;;;;4985860;28;20233;-73
2022/01/16 08:27:40;;;;;;;41.87;24.93;;;;;;;;;;4993687;28;20225;-73
2022/01/16 08:30:05;;;;;;;42.93;23.43;;;;;;;;;;4983162;28;20264;-73
2022/01/16 08:32:31;;;;;;;45.73;24.63;;;;;;;;;;4944056;28;20332;-74
2022/01/16 08:35:02;;;;;;;49.43;26.77;;;;;;;;;;4977386;28;20225;-73
2022/01/16 08:37:28;;;;;;;50.63;26.77;;;;;;;;;;5008724;28;20224;-73
2022/01/16 08:39:56;;;;;;;51.63;26.70;;;;;;;;;;4973752;28;20227;-73
2022/01/16 08:42:21;;;;;;;46.13;25.67;;;;;;;;;;4988858;28;21240;-71
2022/01/16 08:44:49;;;;;;;46.53;26.47;;;;;;;;;;4956833;28;20663;-72
2022/01/16 08:47:15;;;;;;;49.10;26.47;;;;;;;;;;4971712;28;20281;-72
2022/01/16 08:49:40;;;;;;;51.83;25.73;;;;;;;;;;4979473;28;20226;-73
2022/01/16 08:52:08;;;;;;;54.73;27.50;;;;;;;;;;4974099;28;20679;-74
2022/01/16 08:54:34;;;;;;;58.67;31.33;;;;;;;;;;4967967;28;20577;-73
2022/01/16 08:57:01;;;;;;;58.97;31.40;;;;;;;;;;4988593;28;20312;-72
2022/01/16 08:59:32;;;;;;;59.50;28.70;;;;;;;;;;4974957;28;20711;-73
2022/01/16 09:01:59;;;;;;;67.23;30.40;;;;;;;;;;4991846;28;20234;-74
2022/01/16 09:04:29;;;;;;;56.77;29.70;;;;;;;;;;4959323;28;20229;-73
2022/01/16 09:07:00;;;;;;;60.73;30.37;;;;;;;;;;4963536;28;20233;-73
2022/01/16 09:09:27;;;;;;;63.07;29.10;;;;;;;;;;4999405;28;20755;-74
2022/01/16 09:11:53;;;;;;;65.93;30.20;;;;;;;;;;4963557;28;20213;-72
2022/01/16 09:14:21;;;;;;;65.90;31.70;;;;;;;;;;4992903;28;20237;-73
2022/01/16 09:16:46;;;;;;;76.73;33.33;;;;;;;;;;4982397;28;20217;-73
2022/01/16 09:19:12;;;;;;;70.33;33.50;;;;;;;;;;4991177;28;20228;-73
2022/01/16 09:21:40;;;;;;;67.40;32.13;;;;;;;;;;4939982;28;20237;-74
2022/01/16 09:24:08;;;;;;;65.87;31.03;;;;;;;;;;4990881;28;20233;-74
2022/01/16 09:26:36;;;;;;;78.57;33.43;;;;;;;;;;4953279;28;20273;-73
2022/01/16 09:29:05;;;;;;;78.23;33.97;;;;;;;;;;4940583;28;20226;-73
2022/01/16 09:31:33;;;;;;;79.83;36.33;;;;;;;;;;4975172;28;20221;-72
2022/01/16 09:34:01;;;;;;;82.17;35.23;;;;;;;;;;4991075;28;20667;-72
2022/01/16 09:36:27;;;;;;;86.40;36.73;;;;;;;;;;4991314;28;20342;-73
2022/01/16 09:38:55;;;;;;;84.60;37.03;;;;;;;;;;4991730;28;20272;-73
2022/01/16 09:41:21;;;;;;;87.90;36.33;;;;;;;;;;4955716;28;20218;-74
2022/01/16 09:43:46;;;;;;;86.17;36.10;;;;;;;;;;4956243;28;20599;-74
2022/01/16 09:46:11;;;;;;;77.60;34.43;;;;;;;;;;4976180;28;20225;-73
2022/01/16 09:48:40;;;;;;;76.43;35.40;;;;;;;;;;4975663;28;20240;-74
2022/01/16 09:51:07;;;;;;;77.63;33.63;;;;;;;;;;4991880;28;20273;-73
2022/01/16 09:53:35;;;;;;;74.87;34.97;;;;;;;;;;4976300;28;20221;-73
2022/01/16 09:56:00;;;;;;;74.53;34.23;;;;;;;;;;4975963;28;20217;-74
2022/01/16 09:58:26;;;;;;;73.30;34.70;;;;;;;;;;4959473;28;20221;-74
2022/01/16 10:00:57;;;;;;;75.57;33.13;;;;;;;;;;4959727;28;20226;-74
2022/01/16 10:03:44;;;;;;;66.77;31.60;;;;;;;;;;4990700;28;20728;-73
2022/01/16 10:06:21;;;;;;;66.63;32.80;;;;;;;;;;4956617;28;20226;-73
2022/01/16 10:08:49;;;;;;;76.47;33.43;;;;;;;;;;4972711;28;20241;-73
2022/01/16 10:11:39;;;;;;;74.67;33.73;;;;;;;;;;4943211;28;20225;-73
2022/01/16 10:14:23;;;;;;;74.30;33.17;;;;;;;;;;4977496;28;20237;-74
2022/01/16 10:16:51;;;;;;;77.23;34.87;;;;;;;;;;4955953;28;20304;-73
2022/01/16 10:19:30;;;;;;;71.27;32.50;;;;;;;;;;4956199;28;20306;-73
2022/01/16 10:22:03;;;;;;;74.77;32.67;;;;;;;;;;4951145;28;20225;-72
2022/01/16 10:24:30;;;;;;;66.83;30.27;;;;;;;;;;4955718;28;20226;-73
2022/01/16 10:27:10;;;;;;;70.20;32.07;;;;;;;;;;4991642;28;20217;-74
2022/01/16 10:29:43;;;;;;;70.97;32.27;;;;;;;;;;4989611;28;20221;-72
2022/01/16 10:32:13;;;;;;;69.47;31.53;;;;;;;;;;4968195;28;20221;-72
2022/01/16 10:34:41;;;;;;;61.10;30.20;;;;;;;;;;4959438;28;20315;-72
2022/01/16 10:37:22;;;;;;;68.60;31.27;;;;;;;;;;4969252;28;20311;-74
2022/01/16 10:40:12;;;;;;;88.43;42.95;;;;;;;;;;4977953;28;20469;-75
2022/01/16 10:42:49;;;;;;;66.43;30.17;;;;;;;;;;4992807;28;20217;-76
2022/01/16 10:45:16;;;;;;;64.20;30.80;;;;;;;;;;4979861;28;20268;-79
2022/01/16 10:47:47;;;;;;;68.33;31.33;;;;;;;;;;4975992;28;20221;-74
2022/01/16 10:50:19;;;;;;;62.90;30.13;;;;;;;;;;4945357;28;20226;-74
2022/01/16 10:52:53;;;;;;;61.60;29.93;;;;;;;;;;4975428;28;20233;-73
2022/01/16 10:55:28;;;;;;;54.10;28.67;;;;;;;;;;4990503;28;20315;-74
2022/01/16 10:58:19;;;;;;;54.80;28.93;;;;;;;;;;5006137;28;20241;-72
2022/01/16 11:00:51;;;;;;;55.93;28.53;;;;;;;;;;4976688;28;20288;-74
2022/01/16 11:03:17;;;;;;;55.50;29.00;;;;;;;;;;4971617;28;20226;-73
2022/01/16 11:05:45;;;;;;;50.13;27.83;;;;;;;;;;4958904;28;20627;-74
2022/01/16 11:08:16;;;;;;;46.30;25.93;;;;;;;;;;4974635;28;20234;-73
2022/01/16 11:10:55;;;;;;;47.40;25.80;;;;;;;;;;4974501;28;20644;-74
2022/01/16 11:13:23;;;;;;;48.17;26.10;;;;;;;;;;4976739;28;20240;-73
2022/01/16 11:15:50;;;;;;;45.77;25.07;;;;;;;;;;4990686;28;20255;-73
2022/01/16 11:18:19;;;;;;;49.23;27.60;;;;;;;;;;4973518;28;20249;-74
2022/01/16 11:21:07;;;;;;;48.03;26.20;;;;;;;;;;4961535;28;20237;-74
2022/01/16 11:23:45;;;;;;;50.00;26.03;;;;;;;;;;4943736;28;20237;-73
2022/01/16 11:26:17;;;;;;;47.53;26.10;;;;;;;;;;4959897;28;20226;-73
2022/01/16 11:28:43;;;;;;;47.93;25.27;;;;;;;;;;4977526;28;20221;-75
2022/01/16 11:31:16;;;;;;;46.93;24.63;;;;;;;;;;4959661;28;20680;-74
2022/01/16 11:33:42;;;;;;;46.20;26.03;;;;;;;;;;4978264;28;20628;-74
2022/01/16 11:36:14;;;;;;;46.10;24.57;;;;;;;;;;4962251;28;20226;-73
2022/01/16 11:38:54;;;;;;;51.67;26.83;;;;;;;;;;4971391;28;20222;-74
2022/01/16 11:41:33;;;;;;;47.53;26.20;;;;;;;;;;4961177;28;20600;-74
2022/01/16 11:44:03;;;;;;;43.67;23.83;;;;;;;;;;4974963;28;20783;-73
2022/01/16 11:46:30;;;;;;;44.37;23.80;;;;;;;;;;4958294;28;20680;-74
2022/01/16 11:49:01;;;;;;;43.23;23.60;;;;;;;;;;4942646;28;20228;-74
2022/01/16 11:51:36;;;;;;;47.47;25.70;;;;;;;;;;4974383;28;20218;-73
2022/01/16 11:54:04;;;;;;;41.60;24.13;;;;;;;;;;4992889;28;20228;-73
2022/01/16 11:59:12;;;;;;;49.37;26.10;;;;;;;;;;4995279;28;20228;-73
2022/01/16 12:01:44;;;;;;;44.40;24.80;;;;;;;;;;4995934;28;20303;-75
2022/01/16 12:04:29;;;;;;;49.97;25.43;;;;;;;;;;4986268;28;20240;-75
2022/01/16 12:07:23;;;;;;;47.47;25.90;;;;;;;;;;5002200;28;20255;-74
2022/01/16 12:09:57;;;;;;;62.30;28.10;;;;;;;;;;4980450;28;20761;-73
2022/01/16 12:12:23;;;;;;;57.67;28.83;;;;;;;;;;4994320;28;20240;-74
2022/01/16 12:14:57;;;;;;;61.87;31.67;;;;;;;;;;4993747;28;20661;-74
2022/01/16 12:17:42;;;;;;;58.57;28.87;;;;;;;;;;4993032;28;20221;-72
2022/01/16 12:20:20;;;;;;;59.80;30.37;;;;;;;;;;4993078;28;20233;-73
2022/01/16 12:22:57;;;;;;;74.37;37.47;;;;;;;;;;4992481;28;20225;-76
2022/01/16 12:25:33;;;;;;;69.23;32.23;;;;;;;;;;4992495;28;20225;-72
2022/01/16 12:28:04;;;;;;;68.13;34.43;;;;;;;;;;4962604;28;20275;-73
2022/01/16 12:31:03;;;;;;;72.57;33.53;;;;;;;;;;4972901;28;20221;-73
2022/01/16 12:33:47;;;;;;;55.80;28.90;;;;;;;;;;4974334;28;20233;-74
2022/01/16 12:36:18;;;;;;;70.40;32.40;;;;;;;;;;4956859;28;20285;-74
2022/01/16 12:39:04;;;;;;;69.07;33.23;;;;;;;;;;4959541;28;20695;-73
2022/01/16 12:41:40;;;;;;;75.57;35.10;;;;;;;;;;4987721;28;20250;-73
2022/01/16 12:44:12;;;;;;;72.63;35.13;;;;;;;;;;4964177;28;20228;-73
2022/01/16 12:46:51;;;;;;;83.27;37.23;;;;;;;;;;4957171;28;20232;-73
2022/01/16 12:49:20;;;;;;;76.67;36.97;;;;;;;;;;4956930;28;20277;-73
2022/01/16 12:51:47;;;;;;;79.53;37.27;;;;;;;;;;4956271;28;20218;-74
2022/01/16 12:54:17;;;;;;;74.90;36.53;;;;;;;;;;4956112;28;20299;-72
2022/01/16 12:56:49;;;;;;;73.97;37.60;;;;;;;;;;4960672;28;20237;-73
2022/01/16 12:59:25;;;;;;;77.67;38.87;;;;;;;;;;4955755;28;20237;-73
2022/01/16 13:01:52;;;;;;;74.13;35.73;;;;;;;;;;4955658;28;20230;-73
2022/01/16 13:04:39;;;;;;;78.50;39.83;;;;;;;;;;4950336;28;20604;-73
2022/01/16 13:07:08;;;;;;;81.97;39.23;;;;;;;;;;4991498;28;20574;-73
2022/01/16 13:09:37;;;;;;;78.50;38.57;;;;;;;;;;4956450;28;20222;-72
2022/01/16 13:12:03;;;;;;;77.80;38.00;;;;;;;;;;4956154;28;20601;-73
2022/01/16 13:14:33;;;;;;;77.13;39.23;;;;;;;;;;4966978;28;20782;-73
2022/01/16 13:17:03;;;;;;;73.93;37.07;;;;;;;;;;4976197;28;20225;-73
2022/01/16 13:19:52;;;;;;;80.73;38.33;;;;;;;;;;4975903;28;20284;-73
2022/01/16 13:22:20;;;;;;;79.87;39.13;;;;;;;;;;4964496;28;20233;-73
2022/01/16 13:25:06;;;;;;;71.07;38.70;;;;;;;;;;4972652;28;20233;-74
2022/01/16 13:27:37;;;;;;;83.87;39.70;;;;;;;;;;4957225;28;20214;-73
2022/01/16 13:30:07;;;;;;;67.13;35.97;;;;;;;;;;4959337;28;20232;-73
2022/01/16 13:32:34;;;;;;;78.87;38.53;;;;;;;;;;4992878;28;20221;-74
2022/01/16 13:35:00;;;;;;;81.87;42.60;;;;;;;;;;4972617;28;20230;-72
2022/01/16 13:37:30;;;;;;;84.63;40.30;;;;;;;;;;4957598;28;20263;-73
2022/01/16 13:40:12;;;;;;;83.47;40.83;;;;;;;;;;4988655;28;20616;-72
2022/01/16 13:45:36;;;;;;;84.20;39.37;;;;;;;;;;4988256;28;20225;-78
2022/01/16 13:48:09;;;;;;;78.97;38.73;;;;;;;;;;4985993;28;20237;-73
2022/01/16 13:50:37;;;;;;;76.00;39.83;;;;;;;;;;4957062;28;20305;-73
2022/01/16 13:53:05;;;;;;;71.77;39.63;;;;;;;;;;4989532;28;20271;-73
2022/01/16 13:55:45;;;;;;;74.40;36.43;;;;;;;;;;4976738;28;20599;-74
2022/01/16 13:58:15;;;;;;;82.97;40.57;;;;;;;;;;4985104;28;20236;-72
2022/01/16 14:00:41;;;;;;;78.67;39.90;;;;;;;;;;4974527;28;20299;-72
2022/01/16 14:03:10;;;;;;;78.37;41.50;;;;;;;;;;4941871;28;20237;-73
2022/01/16 14:05:52;;;;;;;90.00;42.87;;;;;;;;;;4970415;28;20297;-73
2022/01/16 14:08:30;;;;;;;78.60;39.10;;;;;;;;;;4991251;28;20225;-72
2022/01/16 14:11:09;;;;;;;80.97;39.83;;;;;;;;;;4969538;28;20232;-73
2022/01/16 14:13:38;;;;;;;83.33;41.33;;;;;;;;;;4986634;28;20233;-73
2022/01/16 14:16:13;;;;;;;85.93;42.53;;;;;;;;;;4963728;28;20226;-73
2022/01/16 14:18:52;;;;;;;80.73;41.17;;;;;;;;;;4974351;28;20221;-73
2022/01/16 14:24:11;;;;;;;88.57;41.87;;;;;;;;;;4958642;28;20229;-74
2022/01/16 14:26:50;;;;;;;79.33;43.13;;;;;;;;;;4955796;28;20229;-76
2022/01/16 14:29:19;;;;;;;81.17;41.90;;;;;;;;;;4998873;28;20204;-73
2022/01/16 14:31:45;;;;;;;88.90;43.20;;;;;;;;;;4975031;28;20424;-74
2022/01/16 14:34:14;;;;;;;80.97;41.07;;;;;;;;;;5089969;23;20275;-73
2022/01/16 14:39:29;;;;;;;80.73;40.50;;;;;;;;;;5166474;22;20282;-74
2022/01/16 14:41:55;;;;;;;78.43;39.57;;;;;;;;;;4991859;28;20602;-74
2022/01/16 14:44:27;;;;;;;79.73;42.87;;;;;;;;;;5022531;28;20220;-74
2022/01/16 14:46:53;;;;;;;76.23;39.93;;;;;;;;;;4987951;28;20255;-75
2022/01/16 14:49:19;;;;;;;76.87;40.50;;;;;;;;;;4976020;28;20384;-73
2022/01/16 14:51:47;;;;;;;80.57;42.97;;;;;;;;;;4984830;28;20291;-74
2022/01/16 14:54:13;;;;;;;75.27;42.63;;;;;;;;;;4969149;28;20225;-72
2022/01/16 14:56:39;;;;;;;69.97;36.53;;;;;;;;;;4983733;28;20730;-71
2022/01/16 14:59:04;;;;;;;71.30;40.43;;;;;;;;;;5007191;28;20648;-74
2022/01/16 15:01:33;;;;;;;68.70;40.63;;;;;;;;;;4997029;28;20252;-76
2022/01/16 15:03:58;;;;;;;79.47;45.53;;;;;;;;;;4990873;28;20233;-73
2022/01/16 15:06:26;;;;;;;82.57;48.00;;;;;;;;;;4990762;28;20321;-74
2022/01/16 15:08:57;;;;;;;58.23;34.80;;;;;;;;;;4974729;28;20662;-75
2022/01/16 15:11:23;;;;;;;69.70;40.87;;;;;;;;;;4990517;28;20316;-71
2022/01/16 15:13:50;;;;;;;85.83;50.33;;;;;;;;;;4991318;28;20277;-74
2022/01/16 15:16:23;;;;;;;52.20;34.03;;;;;;;;;;4964765;28;20217;-72
2022/01/16 15:18:57;;;;;;;56.77;34.20;;;;;;;;;;4994541;28;20216;-73